sensor_id;sensor_type;location;lat;lon;timestamp;P1;durP1;ratioP1;P2;durP2;ratioP2
77775;SDS011;66965;43.328;6.668;2023-07-16T00:04:44;12.33;;;8.33;;
77775;SDS011;66965;43.328;6.668;2023-07-16T00:09:35;19.13;;;8.70;;
77775;SDS011;66965;43.328;6.668;2023-07-16T00:12:01;16.58;;;8.18;;
77775;SDS011;66965;43.328;6.668;2023-07-16T00:16:52;15.33;;;8.37;;
77775;SDS011;66965;43.328;6.668;2023-07-16T00:21:43;12.77;;;8.53;;
77775;SDS011;66965;43.328;6.668;2023-07-16T00:24:08;19.58;;;8.85;;
77775;SDS011;66965;43.328;6.668;2023-07-16T00:28:59;15.43;;;10.03;;
77775;SDS011;66965;43.328;6.668;2023-07-16T00:31:24;16.95;;;9.07;;
77775;SDS011;66965;43.328;6.668;2023-07-16T00:36:15;11.70;;;7.90;;
77775;SDS011;66965;43.328;6.668;2023-07-16T00:41:07;10.95;;;8.18;;
77775;SDS011;66965;43.328;6.668;2023-07-16T00:45:58;14.53;;;8.27;;
77775;SDS011;66965;43.328;6.668;2023-07-16T00:50:50;17.08;;;8.30;;
77775;SDS011;66965;43.328;6.668;2023-07-16T00:53:19;11.60;;;8.50;;
77775;SDS011;66965;43.328;6.668;2023-07-16T00:55:45;13.35;;;8.35;;
77775;SDS011;66965;43.328;6.668;2023-07-16T01:00:37;13.93;;;8.67;;
77775;SDS011;66965;43.328;6.668;2023-07-16T01:03:07;13.13;;;7.53;;
77775;SDS011;66965;43.328;6.668;2023-07-16T01:05:57;16.92;;;9.05;;
77775;SDS011;66965;43.328;6.668;2023-07-16T01:08:32;17.48;;;9.18;;
77775;SDS011;66965;43.328;6.668;2023-07-16T01:11:04;15.85;;;7.90;;
77775;SDS011;66965;43.328;6.668;2023-07-16T01:15:55;12.70;;;8.68;;
77775;SDS011;66965;43.328;6.668;2023-07-16T01:20:46;16.07;;;9.00;;
77775;SDS011;66965;43.328;6.668;2023-07-16T01:29:04;14.40;;;8.23;;
77775;SDS011;66965;43.328;6.668;2023-07-16T01:31:33;11.63;;;9.45;;
77775;SDS011;66965;43.328;6.668;2023-07-16T01:33:59;13.70;;;8.43;;
77775;SDS011;66965;43.328;6.668;2023-07-16T01:36:27;12.15;;;8.85;;
77775;SDS011;66965;43.328;6.668;2023-07-16T01:38:53;11.48;;;8.05;;
77775;SDS011;66965;43.328;6.668;2023-07-16T01:43:44;12.27;;;8.40;;
77775;SDS011;66965;43.328;6.668;2023-07-16T01:48:35;13.73;;;9.27;;
77775;SDS011;66965;43.328;6.668;2023-07-16T01:51:02;19.58;;;10.05;;
77775;SDS011;66965;43.328;6.668;2023-07-16T01:53:28;13.43;;;8.98;;
77775;SDS011;66965;43.328;6.668;2023-07-16T01:58:20;14.93;;;8.65;;
77775;SDS011;66965;43.328;6.668;2023-07-16T02:00:45;13.57;;;10.80;;
77775;SDS011;66965;43.328;6.668;2023-07-16T02:05:36;13.82;;;9.68;;
77775;SDS011;66965;43.328;6.668;2023-07-16T02:10:27;13.77;;;8.23;;
77775;SDS011;66965;43.328;6.668;2023-07-16T02:12:52;13.15;;;8.85;;
77775;SDS011;66965;43.328;6.668;2023-07-16T02:15:18;16.95;;;10.20;;
77775;SDS011;66965;43.328;6.668;2023-07-16T02:17:44;17.98;;;9.82;;
77775;SDS011;66965;43.328;6.668;2023-07-16T02:20:10;14.05;;;9.43;;
77775;SDS011;66965;43.328;6.668;2023-07-16T02:22:36;13.18;;;10.38;;
77775;SDS011;66965;43.328;6.668;2023-07-16T02:27:28;16.92;;;10.63;;
77775;SDS011;66965;43.328;6.668;2023-07-16T02:29:53;15.02;;;10.48;;
77775;SDS011;66965;43.328;6.668;2023-07-16T02:34:44;14.00;;;9.33;;
77775;SDS011;66965;43.328;6.668;2023-07-16T02:37:10;18.08;;;9.88;;
77775;SDS011;66965;43.328;6.668;2023-07-16T02:42:00;15.43;;;10.00;;
77775;SDS011;66965;43.328;6.668;2023-07-16T02:46:51;15.20;;;9.60;;
77775;SDS011;66965;43.328;6.668;2023-07-16T02:51:42;13.40;;;10.60;;
77775;SDS011;66965;43.328;6.668;2023-07-16T02:56:33;13.40;;;8.85;;
77775;SDS011;66965;43.328;6.668;2023-07-16T03:01:24;14.37;;;9.57;;
77775;SDS011;66965;43.328;6.668;2023-07-16T03:06:14;14.07;;;9.27;;
77775;SDS011;66965;43.328;6.668;2023-07-16T03:08:40;16.17;;;9.73;;
77775;SDS011;66965;43.328;6.668;2023-07-16T03:13:31;14.98;;;9.20;;
77775;SDS011;66965;43.328;6.668;2023-07-16T03:15:56;21.30;;;10.00;;
77775;SDS011;66965;43.328;6.668;2023-07-16T03:18:22;46.17;;;12.63;;
77775;SDS011;66965;43.328;6.668;2023-07-16T03:20:47;13.50;;;8.25;;
77775;SDS011;66965;43.328;6.668;2023-07-16T03:25:38;15.82;;;10.00;;
77775;SDS011;66965;43.328;6.668;2023-07-16T03:30:32;12.50;;;9.57;;
77775;SDS011;66965;43.328;6.668;2023-07-16T03:32:58;14.05;;;9.70;;
77775;SDS011;66965;43.328;6.668;2023-07-16T03:37:48;18.07;;;8.67;;
77775;SDS011;66965;43.328;6.668;2023-07-16T03:42:40;12.50;;;9.35;;
77775;SDS011;66965;43.328;6.668;2023-07-16T03:47:31;16.00;;;8.85;;
77775;SDS011;66965;43.328;6.668;2023-07-16T03:52:22;14.97;;;8.03;;
77775;SDS011;66965;43.328;6.668;2023-07-16T03:54:49;17.15;;;10.05;;
77775;SDS011;66965;43.328;6.668;2023-07-16T03:59:40;15.80;;;9.83;;
77775;SDS011;66965;43.328;6.668;2023-07-16T04:02:06;13.95;;;9.98;;
77775;SDS011;66965;43.328;6.668;2023-07-16T04:04:33;16.33;;;9.77;;
77775;SDS011;66965;43.328;6.668;2023-07-16T04:09:24;17.80;;;9.68;;
77775;SDS011;66965;43.328;6.668;2023-07-16T04:14:15;14.93;;;10.10;;
77775;SDS011;66965;43.328;6.668;2023-07-16T04:16:41;16.15;;;10.55;;
77775;SDS011;66965;43.328;6.668;2023-07-16T04:21:32;17.60;;;8.85;;
77775;SDS011;66965;43.328;6.668;2023-07-16T04:23:57;15.50;;;9.30;;
77775;SDS011;66965;43.328;6.668;2023-07-16T04:28:48;12.53;;;9.57;;
77775;SDS011;66965;43.328;6.668;2023-07-16T04:33:39;12.77;;;9.95;;
77775;SDS011;66965;43.328;6.668;2023-07-16T04:38:30;13.10;;;7.80;;
77775;SDS011;66965;43.328;6.668;2023-07-16T04:43:20;17.13;;;9.40;;
77775;SDS011;66965;43.328;6.668;2023-07-16T04:45:46;15.18;;;9.50;;
77775;SDS011;66965;43.328;6.668;2023-07-16T04:50:38;13.93;;;9.27;;
77775;SDS011;66965;43.328;6.668;2023-07-16T04:53:03;13.45;;;8.18;;
77775;SDS011;66965;43.328;6.668;2023-07-16T04:57:54;13.90;;;9.10;;
77775;SDS011;66965;43.328;6.668;2023-07-16T05:00:21;11.60;;;8.38;;
77775;SDS011;66965;43.328;6.668;2023-07-16T05:05:13;14.82;;;7.60;;
77775;SDS011;66965;43.328;6.668;2023-07-16T05:10:04;12.93;;;8.33;;
77775;SDS011;66965;43.328;6.668;2023-07-16T05:14:55;14.67;;;7.97;;
77775;SDS011;66965;43.328;6.668;2023-07-16T05:19:45;11.63;;;8.67;;
77775;SDS011;66965;43.328;6.668;2023-07-16T05:22:12;13.68;;;8.57;;
77775;SDS011;66965;43.328;6.668;2023-07-16T05:27:03;13.53;;;8.43;;
77775;SDS011;66965;43.328;6.668;2023-07-16T05:31:54;10.90;;;8.20;;
77775;SDS011;66965;43.328;6.668;2023-07-16T05:36:45;9.90;;;7.67;;
77775;SDS011;66965;43.328;6.668;2023-07-16T05:41:38;17.30;;;8.25;;
77775;SDS011;66965;43.328;6.668;2023-07-16T05:44:04;14.40;;;7.65;;
77775;SDS011;66965;43.328;6.668;2023-07-16T05:48:55;17.10;;;8.07;;
77775;SDS011;66965;43.328;6.668;2023-07-16T05:53:46;13.43;;;8.80;;
77775;SDS011;66965;43.328;6.668;2023-07-16T05:58:37;17.00;;;8.23;;
77775;SDS011;66965;43.328;6.668;2023-07-16T06:01:02;19.58;;;9.40;;
77775;SDS011;66965;43.328;6.668;2023-07-16T06:05:53;13.03;;;7.90;;
77775;SDS011;66965;43.328;6.668;2023-07-16T06:10:45;16.27;;;7.43;;
77775;SDS011;66965;43.328;6.668;2023-07-16T06:13:10;14.73;;;6.93;;
77775;SDS011;66965;43.328;6.668;2023-07-16T06:18:01;16.83;;;7.30;;
77775;SDS011;66965;43.328;6.668;2023-07-16T06:22:53;15.27;;;7.30;;
77775;SDS011;66965;43.328;6.668;2023-07-16T06:27:44;12.13;;;6.93;;
77775;SDS011;66965;43.328;6.668;2023-07-16T06:32:35;14.68;;;8.57;;
77775;SDS011;66965;43.328;6.668;2023-07-16T06:37:26;14.15;;;8.50;;
77775;SDS011;66965;43.328;6.668;2023-07-16T06:42:16;12.57;;;7.60;;
77775;SDS011;66965;43.328;6.668;2023-07-16T06:47:07;13.73;;;8.40;;
77775;SDS011;66965;43.328;6.668;2023-07-16T06:49:33;14.55;;;8.10;;
77775;SDS011;66965;43.328;6.668;2023-07-16T06:54:26;12.55;;;7.63;;
77775;SDS011;66965;43.328;6.668;2023-07-16T06:56:51;12.32;;;8.23;;
77775;SDS011;66965;43.328;6.668;2023-07-16T07:01:42;15.07;;;7.17;;
77775;SDS011;66965;43.328;6.668;2023-07-16T07:06:33;12.82;;;7.65;;
77775;SDS011;66965;43.328;6.668;2023-07-16T07:11:23;9.77;;;7.18;;
77775;SDS011;66965;43.328;6.668;2023-07-16T07:16:15;14.60;;;7.40;;
77775;SDS011;66965;43.328;6.668;2023-07-16T07:18:40;16.17;;;10.13;;
77775;SDS011;66965;43.328;6.668;2023-07-16T07:23:31;11.80;;;7.23;;
77775;SDS011;66965;43.328;6.668;2023-07-16T07:25:57;13.05;;;7.55;;
77775;SDS011;66965;43.328;6.668;2023-07-16T07:28:22;17.08;;;9.18;;
77775;SDS011;66965;43.328;6.668;2023-07-16T07:30:47;18.95;;;8.77;;
77775;SDS011;66965;43.328;6.668;2023-07-16T07:35:38;13.55;;;8.13;;
77775;SDS011;66965;43.328;6.668;2023-07-16T07:38:04;12.05;;;7.90;;
77775;SDS011;66965;43.328;6.668;2023-07-16T07:40:29;16.35;;;8.90;;
77775;SDS011;66965;43.328;6.668;2023-07-16T07:45:20;13.30;;;7.95;;
77775;SDS011;66965;43.328;6.668;2023-07-16T07:47:46;10.30;;;8.02;;
77775;SDS011;66965;43.328;6.668;2023-07-16T07:52:36;17.57;;;8.47;;
77775;SDS011;66965;43.328;6.668;2023-07-16T07:57:27;12.23;;;7.57;;
77775;SDS011;66965;43.328;6.668;2023-07-16T07:59:53;18.08;;;8.85;;
77775;SDS011;66965;43.328;6.668;2023-07-16T08:02:22;13.55;;;7.47;;
77775;SDS011;66965;43.328;6.668;2023-07-16T08:04:51;20.92;;;8.40;;
77775;SDS011;66965;43.328;6.668;2023-07-16T08:07:17;13.45;;;8.73;;
77775;SDS011;66965;43.328;6.668;2023-07-16T08:09:43;13.82;;;7.60;;
77775;SDS011;66965;43.328;6.668;2023-07-16T08:12:08;15.88;;;8.20;;
77775;SDS011;66965;43.328;6.668;2023-07-16T08:14:34;17.85;;;8.82;;
77775;SDS011;66965;43.328;6.668;2023-07-16T08:16:59;16.65;;;8.30;;
77775;SDS011;66965;43.328;6.668;2023-07-16T08:19:25;14.20;;;8.18;;
77775;SDS011;66965;43.328;6.668;2023-07-16T08:21:51;12.38;;;8.15;;
77775;SDS011;66965;43.328;6.668;2023-07-16T08:24:17;11.55;;;7.43;;
77775;SDS011;66965;43.328;6.668;2023-07-16T08:26:42;13.30;;;7.88;;
77775;SDS011;66965;43.328;6.668;2023-07-16T08:29:08;15.40;;;7.90;;
77775;SDS011;66965;43.328;6.668;2023-07-16T08:31:33;14.60;;;7.82;;
77775;SDS011;66965;43.328;6.668;2023-07-16T08:33:59;12.40;;;8.00;;
77775;SDS011;66965;43.328;6.668;2023-07-16T08:36:24;17.88;;;7.30;;
77775;SDS011;66965;43.328;6.668;2023-07-16T08:38:50;15.05;;;7.95;;
77775;SDS011;66965;43.328;6.668;2023-07-16T08:41:15;12.48;;;7.53;;
77775;SDS011;66965;43.328;6.668;2023-07-16T08:43:41;18.15;;;7.28;;
77775;SDS011;66965;43.328;6.668;2023-07-16T08:46:10;20.55;;;7.55;;
77775;SDS011;66965;43.328;6.668;2023-07-16T08:48:36;15.82;;;7.45;;
77775;SDS011;66965;43.328;6.668;2023-07-16T08:51:02;15.32;;;7.53;;
77775;SDS011;66965;43.328;6.668;2023-07-16T08:53:27;13.98;;;7.35;;
77775;SDS011;66965;43.328;6.668;2023-07-16T08:55:54;12.77;;;7.38;;
77775;SDS011;66965;43.328;6.668;2023-07-16T08:58:21;12.98;;;6.95;;
77775;SDS011;66965;43.328;6.668;2023-07-16T09:00:49;12.18;;;6.32;;
77775;SDS011;66965;43.328;6.668;2023-07-16T09:03:14;20.08;;;7.95;;
77775;SDS011;66965;43.328;6.668;2023-07-16T09:05:45;16.48;;;6.57;;
77775;SDS011;66965;43.328;6.668;2023-07-16T09:08:11;12.02;;;6.03;;
77775;SDS011;66965;43.328;6.668;2023-07-16T09:10:39;16.23;;;6.78;;
77775;SDS011;66965;43.328;6.668;2023-07-16T09:13:06;17.33;;;7.18;;
77775;SDS011;66965;43.328;6.668;2023-07-16T09:15:31;11.48;;;7.20;;
77775;SDS011;66965;43.328;6.668;2023-07-16T09:17:59;11.20;;;6.60;;
77775;SDS011;66965;43.328;6.668;2023-07-16T09:20:24;11.85;;;6.32;;
77775;SDS011;66965;43.328;6.668;2023-07-16T09:22:53;15.68;;;7.00;;
77775;SDS011;66965;43.328;6.668;2023-07-16T09:25:24;24.13;;;7.15;;
77775;SDS011;66965;43.328;6.668;2023-07-16T09:27:53;11.25;;;6.15;;
77775;SDS011;66965;43.328;6.668;2023-07-16T09:30:20;14.07;;;6.38;;
77775;SDS011;66965;43.328;6.668;2023-07-16T09:32:45;15.50;;;7.05;;
77775;SDS011;66965;43.328;6.668;2023-07-16T09:35:13;13.85;;;7.38;;
77775;SDS011;66965;43.328;6.668;2023-07-16T09:37:39;13.50;;;6.13;;
77775;SDS011;66965;43.328;6.668;2023-07-16T09:40:08;13.57;;;6.35;;
77775;SDS011;66965;43.328;6.668;2023-07-16T09:42:36;8.95;;;6.05;;
77775;SDS011;66965;43.328;6.668;2023-07-16T09:45:03;14.35;;;5.88;;
77775;SDS011;66965;43.328;6.668;2023-07-16T09:47:31;19.65;;;6.22;;
77775;SDS011;66965;43.328;6.668;2023-07-16T09:49:56;10.85;;;5.60;;
77775;SDS011;66965;43.328;6.668;2023-07-16T09:52:22;14.18;;;6.03;;
77775;SDS011;66965;43.328;6.668;2023-07-16T09:54:51;8.88;;;6.28;;
77775;SDS011;66965;43.328;6.668;2023-07-16T09:57:20;10.88;;;5.57;;
77775;SDS011;66965;43.328;6.668;2023-07-16T09:59:47;11.30;;;6.10;;
77775;SDS011;66965;43.328;6.668;2023-07-16T10:02:13;12.98;;;6.32;;
77775;SDS011;66965;43.328;6.668;2023-07-16T10:04:39;12.23;;;6.53;;
77775;SDS011;66965;43.328;6.668;2023-07-16T10:07:05;10.95;;;5.63;;
77775;SDS011;66965;43.328;6.668;2023-07-16T10:12:10;17.52;;;6.03;;
77775;SDS011;66965;43.328;6.668;2023-07-16T10:14:41;18.70;;;7.22;;
77775;SDS011;66965;43.328;6.668;2023-07-16T10:17:11;15.52;;;6.63;;
77775;SDS011;66965;43.328;6.668;2023-07-16T10:22:42;15.65;;;6.40;;
77775;SDS011;66965;43.328;6.668;2023-07-16T10:30:07;14.27;;;6.47;;
77775;SDS011;66965;43.328;6.668;2023-07-16T10:32:33;13.93;;;6.28;;
77775;SDS011;66965;43.328;6.668;2023-07-16T10:34:58;13.15;;;5.90;;
77775;SDS011;66965;43.328;6.668;2023-07-16T10:37:24;11.35;;;5.80;;
77775;SDS011;66965;43.328;6.668;2023-07-16T10:39:51;15.63;;;6.63;;
77775;SDS011;66965;43.328;6.668;2023-07-16T10:42:18;11.68;;;6.07;;
77775;SDS011;66965;43.328;6.668;2023-07-16T10:44:44;9.70;;;5.75;;
77775;SDS011;66965;43.328;6.668;2023-07-16T10:47:17;11.30;;;5.38;;
77775;SDS011;66965;43.328;6.668;2023-07-16T10:49:46;14.00;;;6.25;;
77775;SDS011;66965;43.328;6.668;2023-07-16T10:52:11;10.30;;;5.57;;
77775;SDS011;66965;43.328;6.668;2023-07-16T10:54:37;12.00;;;6.07;;
77775;SDS011;66965;43.328;6.668;2023-07-16T10:57:03;13.45;;;6.95;;
77775;SDS011;66965;43.328;6.668;2023-07-16T10:59:29;14.23;;;6.55;;
77775;SDS011;66965;43.328;6.668;2023-07-16T11:01:55;13.63;;;7.18;;
77775;SDS011;66965;43.328;6.668;2023-07-16T11:04:20;12.75;;;6.28;;
77775;SDS011;66965;43.328;6.668;2023-07-16T11:06:46;15.07;;;6.65;;
77775;SDS011;66965;43.328;6.668;2023-07-16T11:09:11;11.38;;;6.68;;
77775;SDS011;66965;43.328;6.668;2023-07-16T11:11:37;12.75;;;5.80;;
77775;SDS011;66965;43.328;6.668;2023-07-16T11:14:04;13.90;;;6.32;;
77775;SDS011;66965;43.328;6.668;2023-07-16T11:16:34;13.27;;;6.55;;
77775;SDS011;66965;43.328;6.668;2023-07-16T11:19:06;11.88;;;6.50;;
77775;SDS011;66965;43.328;6.668;2023-07-16T11:21:35;10.80;;;5.93;;
77775;SDS011;66965;43.328;6.668;2023-07-16T11:24:10;9.10;;;5.18;;
77775;SDS011;66965;43.328;6.668;2023-07-16T11:26:38;12.88;;;6.10;;
77775;SDS011;66965;43.328;6.668;2023-07-16T11:29:13;18.00;;;6.85;;
77775;SDS011;66965;43.328;6.668;2023-07-16T11:31:40;15.27;;;6.30;;
77775;SDS011;66965;43.328;6.668;2023-07-16T11:34:19;13.43;;;6.55;;
77775;SDS011;66965;43.328;6.668;2023-07-16T11:39:11;21.07;;;7.20;;
77775;SDS011;66965;43.328;6.668;2023-07-16T11:41:37;14.65;;;6.80;;
77775;SDS011;66965;43.328;6.668;2023-07-16T11:44:03;11.45;;;5.25;;
77775;SDS011;66965;43.328;6.668;2023-07-16T11:46:32;10.13;;;5.95;;
77775;SDS011;66965;43.328;6.668;2023-07-16T11:48:58;12.25;;;5.82;;
77775;SDS011;66965;43.328;6.668;2023-07-16T11:51:24;15.52;;;6.90;;
77775;SDS011;66965;43.328;6.668;2023-07-16T11:53:49;10.05;;;5.78;;
77775;SDS011;66965;43.328;6.668;2023-07-16T11:56:15;11.90;;;6.03;;
77775;SDS011;66965;43.328;6.668;2023-07-16T11:58:40;12.07;;;6.25;;
77775;SDS011;66965;43.328;6.668;2023-07-16T12:01:06;13.52;;;6.00;;
77775;SDS011;66965;43.328;6.668;2023-07-16T12:03:31;15.70;;;6.47;;
77775;SDS011;66965;43.328;6.668;2023-07-16T12:05:57;12.82;;;6.53;;
77775;SDS011;66965;43.328;6.668;2023-07-16T12:08:22;16.77;;;6.05;;
77775;SDS011;66965;43.328;6.668;2023-07-16T12:10:47;12.18;;;5.60;;
77775;SDS011;66965;43.328;6.668;2023-07-16T12:13:13;14.63;;;6.05;;
77775;SDS011;66965;43.328;6.668;2023-07-16T12:15:38;12.80;;;5.80;;
77775;SDS011;66965;43.328;6.668;2023-07-16T12:18:04;12.60;;;6.07;;
77775;SDS011;66965;43.328;6.668;2023-07-16T12:20:29;14.13;;;6.43;;
77775;SDS011;66965;43.328;6.668;2023-07-16T12:22:54;15.73;;;6.18;;
77775;SDS011;66965;43.328;6.668;2023-07-16T12:25:20;12.07;;;5.95;;
77775;SDS011;66965;43.328;6.668;2023-07-16T12:27:46;15.88;;;6.93;;
77775;SDS011;66965;43.328;6.668;2023-07-16T12:30:11;12.98;;;5.90;;
77775;SDS011;66965;43.328;6.668;2023-07-16T12:32:37;18.65;;;6.75;;
77775;SDS011;66965;43.328;6.668;2023-07-16T12:35:03;16.33;;;6.57;;
77775;SDS011;66965;43.328;6.668;2023-07-16T12:37:29;12.88;;;5.80;;
77775;SDS011;66965;43.328;6.668;2023-07-16T12:39:55;10.50;;;6.07;;
77775;SDS011;66965;43.328;6.668;2023-07-16T12:42:20;14.68;;;5.72;;
77775;SDS011;66965;43.328;6.668;2023-07-16T12:44:46;17.50;;;6.72;;
77775;SDS011;66965;43.328;6.668;2023-07-16T12:47:11;11.10;;;5.45;;
77775;SDS011;66965;43.328;6.668;2023-07-16T12:49:37;15.75;;;6.45;;
77775;SDS011;66965;43.328;6.668;2023-07-16T12:52:02;12.05;;;5.53;;
77775;SDS011;66965;43.328;6.668;2023-07-16T12:54:28;14.93;;;5.72;;
77775;SDS011;66965;43.328;6.668;2023-07-16T12:56:54;12.23;;;5.90;;
77775;SDS011;66965;43.328;6.668;2023-07-16T12:59:20;11.48;;;6.07;;
77775;SDS011;66965;43.328;6.668;2023-07-16T13:01:45;13.20;;;6.35;;
77775;SDS011;66965;43.328;6.668;2023-07-16T13:04:11;10.05;;;6.03;;
77775;SDS011;66965;43.328;6.668;2023-07-16T13:06:36;15.45;;;6.38;;
77775;SDS011;66965;43.328;6.668;2023-07-16T13:09:01;12.60;;;5.47;;
77775;SDS011;66965;43.328;6.668;2023-07-16T13:11:28;12.80;;;6.30;;
77775;SDS011;66965;43.328;6.668;2023-07-16T13:13:53;12.10;;;5.22;;
77775;SDS011;66965;43.328;6.668;2023-07-16T13:16:19;11.45;;;5.88;;
77775;SDS011;66965;43.328;6.668;2023-07-16T13:18:44;13.23;;;5.40;;
77775;SDS011;66965;43.328;6.668;2023-07-16T13:21:09;14.45;;;6.18;;
77775;SDS011;66965;43.328;6.668;2023-07-16T13:23:35;11.25;;;5.57;;
77775;SDS011;66965;43.328;6.668;2023-07-16T13:26:01;13.48;;;6.10;;
77775;SDS011;66965;43.328;6.668;2023-07-16T13:28:26;14.90;;;5.85;;
77775;SDS011;66965;43.328;6.668;2023-07-16T13:30:53;11.13;;;5.72;;
77775;SDS011;66965;43.328;6.668;2023-07-16T13:33:19;10.32;;;5.45;;
77775;SDS011;66965;43.328;6.668;2023-07-16T13:35:44;10.35;;;5.40;;
77775;SDS011;66965;43.328;6.668;2023-07-16T13:38:10;12.50;;;6.28;;
77775;SDS011;66965;43.328;6.668;2023-07-16T13:40:35;13.63;;;5.90;;
77775;SDS011;66965;43.328;6.668;2023-07-16T13:43:01;10.38;;;5.45;;
77775;SDS011;66965;43.328;6.668;2023-07-16T13:45:26;9.23;;;5.25;;
77775;SDS011;66965;43.328;6.668;2023-07-16T13:47:52;12.25;;;5.68;;
77775;SDS011;66965;43.328;6.668;2023-07-16T13:50:17;14.40;;;5.85;;
77775;SDS011;66965;43.328;6.668;2023-07-16T13:52:44;9.02;;;5.68;;
77775;SDS011;66965;43.328;6.668;2023-07-16T13:55:09;12.30;;;6.32;;
77775;SDS011;66965;43.328;6.668;2023-07-16T13:57:35;12.35;;;5.30;;
77775;SDS011;66965;43.328;6.668;2023-07-16T14:00:01;11.82;;;5.85;;
77775;SDS011;66965;43.328;6.668;2023-07-16T14:02:29;11.40;;;5.93;;
77775;SDS011;66965;43.328;6.668;2023-07-16T14:04:54;14.10;;;6.57;;
77775;SDS011;66965;43.328;6.668;2023-07-16T14:07:20;11.95;;;5.20;;
77775;SDS011;66965;43.328;6.668;2023-07-16T14:09:45;12.82;;;6.25;;
77775;SDS011;66965;43.328;6.668;2023-07-16T14:12:10;14.15;;;6.43;;
77775;SDS011;66965;43.328;6.668;2023-07-16T14:14:36;13.95;;;5.45;;
77775;SDS011;66965;43.328;6.668;2023-07-16T14:17:01;14.88;;;6.18;;
77775;SDS011;66965;43.328;6.668;2023-07-16T14:19:27;13.73;;;5.70;;
77775;SDS011;66965;43.328;6.668;2023-07-16T14:21:54;12.38;;;6.50;;
77775;SDS011;66965;43.328;6.668;2023-07-16T14:24:20;12.73;;;5.07;;
77775;SDS011;66965;43.328;6.668;2023-07-16T14:26:45;14.00;;;5.97;;
77775;SDS011;66965;43.328;6.668;2023-07-16T14:29:11;10.50;;;5.47;;
77775;SDS011;66965;43.328;6.668;2023-07-16T14:31:37;12.85;;;6.47;;
77775;SDS011;66965;43.328;6.668;2023-07-16T14:34:02;13.45;;;6.25;;
77775;SDS011;66965;43.328;6.668;2023-07-16T14:36:28;16.08;;;6.07;;
77775;SDS011;66965;43.328;6.668;2023-07-16T14:38:53;12.50;;;5.93;;
77775;SDS011;66965;43.328;6.668;2023-07-16T14:41:19;15.63;;;6.05;;
77775;SDS011;66965;43.328;6.668;2023-07-16T14:43:45;13.55;;;6.22;;
77775;SDS011;66965;43.328;6.668;2023-07-16T14:46:13;12.20;;;5.90;;
77775;SDS011;66965;43.328;6.668;2023-07-16T14:48:41;18.80;;;7.10;;
77775;SDS011;66965;43.328;6.668;2023-07-16T14:51:07;16.73;;;6.32;;
77775;SDS011;66965;43.328;6.668;2023-07-16T14:53:32;12.25;;;5.60;;
77775;SDS011;66965;43.328;6.668;2023-07-16T14:55:58;16.25;;;6.47;;
77775;SDS011;66965;43.328;6.668;2023-07-16T14:58:23;11.65;;;6.25;;
77775;SDS011;66965;43.328;6.668;2023-07-16T15:00:49;14.80;;;5.75;;
77775;SDS011;66965;43.328;6.668;2023-07-16T15:03:14;14.48;;;6.15;;
77775;SDS011;66965;43.328;6.668;2023-07-16T15:05:40;14.10;;;6.28;;
77775;SDS011;66965;43.328;6.668;2023-07-16T15:08:05;13.50;;;5.80;;
77775;SDS011;66965;43.328;6.668;2023-07-16T15:10:31;15.48;;;5.38;;
77775;SDS011;66965;43.328;6.668;2023-07-16T15:12:57;13.95;;;5.95;;
77775;SDS011;66965;43.328;6.668;2023-07-16T15:15:23;16.02;;;6.75;;
77775;SDS011;66965;43.328;6.668;2023-07-16T15:17:48;14.52;;;5.97;;
77775;SDS011;66965;43.328;6.668;2023-07-16T15:20:14;13.30;;;5.50;;
77775;SDS011;66965;43.328;6.668;2023-07-16T15:22:39;13.93;;;6.03;;
77775;SDS011;66965;43.328;6.668;2023-07-16T15:25:05;16.60;;;6.65;;
77775;SDS011;66965;43.328;6.668;2023-07-16T15:27:31;12.77;;;6.18;;
77775;SDS011;66965;43.328;6.668;2023-07-16T15:29:56;15.73;;;5.68;;
77775;SDS011;66965;43.328;6.668;2023-07-16T15:32:21;12.70;;;5.68;;
77775;SDS011;66965;43.328;6.668;2023-07-16T15:34:47;16.52;;;6.60;;
77775;SDS011;66965;43.328;6.668;2023-07-16T15:37:13;21.05;;;6.13;;
77775;SDS011;66965;43.328;6.668;2023-07-16T15:39:38;16.15;;;6.30;;
77775;SDS011;66965;43.328;6.668;2023-07-16T15:42:04;17.50;;;6.63;;
77775;SDS011;66965;43.328;6.668;2023-07-16T15:44:30;18.30;;;6.47;;
77775;SDS011;66965;43.328;6.668;2023-07-16T15:46:56;15.13;;;5.47;;
77775;SDS011;66965;43.328;6.668;2023-07-16T15:49:23;17.95;;;6.30;;
77775;SDS011;66965;43.328;6.668;2023-07-16T15:51:48;21.13;;;7.22;;
77775;SDS011;66965;43.328;6.668;2023-07-16T15:54:14;16.02;;;6.45;;
77775;SDS011;66965;43.328;6.668;2023-07-16T15:56:39;14.85;;;6.43;;
77775;SDS011;66965;43.328;6.668;2023-07-16T15:59:06;13.50;;;6.45;;
77775;SDS011;66965;43.328;6.668;2023-07-16T16:01:31;13.63;;;6.15;;
77775;SDS011;66965;43.328;6.668;2023-07-16T16:03:57;18.48;;;7.13;;
77775;SDS011;66965;43.328;6.668;2023-07-16T16:06:22;27.20;;;7.47;;
77775;SDS011;66965;43.328;6.668;2023-07-16T16:08:48;18.30;;;6.82;;
77775;SDS011;66965;43.328;6.668;2023-07-16T16:11:13;17.88;;;6.75;;
77775;SDS011;66965;43.328;6.668;2023-07-16T16:13:39;15.52;;;7.20;;
77775;SDS011;66965;43.328;6.668;2023-07-16T16:16:04;23.83;;;7.28;;
77775;SDS011;66965;43.328;6.668;2023-07-16T16:18:30;12.52;;;5.63;;
77775;SDS011;66965;43.328;6.668;2023-07-16T16:20:55;14.23;;;6.70;;
77775;SDS011;66965;43.328;6.668;2023-07-16T16:23:21;23.83;;;6.63;;
77775;SDS011;66965;43.328;6.668;2023-07-16T16:25:46;14.45;;;6.63;;
77775;SDS011;66965;43.328;6.668;2023-07-16T16:28:12;12.68;;;5.97;;
77775;SDS011;66965;43.328;6.668;2023-07-16T16:30:38;14.68;;;6.60;;
77775;SDS011;66965;43.328;6.668;2023-07-16T16:33:05;12.15;;;5.93;;
77775;SDS011;66965;43.328;6.668;2023-07-16T16:35:35;13.85;;;7.50;;
77775;SDS011;66965;43.328;6.668;2023-07-16T16:40:29;12.68;;;6.50;;
77775;SDS011;66965;43.328;6.668;2023-07-16T16:42:56;19.20;;;6.80;;
77775;SDS011;66965;43.328;6.668;2023-07-16T16:45:22;14.32;;;6.82;;
77775;SDS011;66965;43.328;6.668;2023-07-16T16:47:47;12.50;;;6.95;;
77775;SDS011;66965;43.328;6.668;2023-07-16T16:50:14;16.23;;;7.38;;
77775;SDS011;66965;43.328;6.668;2023-07-16T16:52:39;13.43;;;7.82;;
77775;SDS011;66965;43.328;6.668;2023-07-16T16:55:05;19.38;;;7.70;;
77775;SDS011;66965;43.328;6.668;2023-07-16T16:57:31;13.70;;;6.70;;
77775;SDS011;66965;43.328;6.668;2023-07-16T16:59:58;18.40;;;7.93;;
77775;SDS011;66965;43.328;6.668;2023-07-16T17:02:24;18.65;;;7.20;;
77775;SDS011;66965;43.328;6.668;2023-07-16T17:04:49;11.32;;;6.38;;
77775;SDS011;66965;43.328;6.668;2023-07-16T17:07:15;18.52;;;8.25;;
77775;SDS011;66965;43.328;6.668;2023-07-16T17:09:41;14.93;;;7.78;;
77775;SDS011;66965;43.328;6.668;2023-07-16T17:12:08;14.68;;;7.13;;
77775;SDS011;66965;43.328;6.668;2023-07-16T17:14:36;15.75;;;7.95;;
77775;SDS011;66965;43.328;6.668;2023-07-16T17:17:10;18.58;;;6.88;;
77775;SDS011;66965;43.328;6.668;2023-07-16T17:19:35;20.70;;;7.38;;
77775;SDS011;66965;43.328;6.668;2023-07-16T17:22:02;19.20;;;7.80;;
77775;SDS011;66965;43.328;6.668;2023-07-16T17:24:28;18.92;;;7.53;;
77775;SDS011;66965;43.328;6.668;2023-07-16T17:26:54;25.48;;;10.25;;
77775;SDS011;66965;43.328;6.668;2023-07-16T17:29:19;16.02;;;7.57;;
77775;SDS011;66965;43.328;6.668;2023-07-16T17:31:45;18.10;;;8.40;;
77775;SDS011;66965;43.328;6.668;2023-07-16T17:34:10;15.82;;;8.57;;
77775;SDS011;66965;43.328;6.668;2023-07-16T17:36:35;11.50;;;6.45;;
77775;SDS011;66965;43.328;6.668;2023-07-16T17:39:01;13.82;;;6.82;;
77775;SDS011;66965;43.328;6.668;2023-07-16T17:41:27;20.30;;;7.60;;
77775;SDS011;66965;43.328;6.668;2023-07-16T17:43:52;18.88;;;7.15;;